sensor_id;sensor_type;location;lat;lon;timestamp;temperature;humidity
15328;DHT22;7764;51.430;6.840;2023-05-24T00:02:24;10.40;99.90
15328;DHT22;7764;51.430;6.840;2023-05-24T00:04:53;10.40;99.90
15328;DHT22;7764;51.430;6.840;2023-05-24T00:07:20;10.30;99.90
15328;DHT22;7764;51.430;6.840;2023-05-24T00:09:47;10.20;99.90
15328;DHT22;7764;51.430;6.840;2023-05-24T00:12:14;10.20;99.90
15328;DHT22;7764;51.430;6.840;2023-05-24T00:14:41;10.10;99.90
15328;DHT22;7764;51.430;6.840;2023-05-24T00:17:08;10.10;99.90
15328;DHT22;7764;51.430;6.840;2023-05-24T00:19:35;10.10;99.90
15328;DHT22;7764;51.430;6.840;2023-05-24T00:22:04;10.10;99.90
15328;DHT22;7764;51.430;6.840;2023-05-24T00:24:31;10.00;99.90
15328;DHT22;7764;51.430;6.840;2023-05-24T00:26:57;10.00;99.90
15328;DHT22;7764;51.430;6.840;2023-05-24T00:29:24;10.00;99.90
15328;DHT22;7764;51.430;6.840;2023-05-24T00:31:51;10.10;99.90
15328;DHT22;7764;51.430;6.840;2023-05-24T00:34:18;10.00;99.90
15328;DHT22;7764;51.430;6.840;2023-05-24T00:36:45;10.10;99.90
15328;DHT22;7764;51.430;6.840;2023-05-24T00:39:13;10.10;99.90
15328;DHT22;7764;51.430;6.840;2023-05-24T00:41:40;10.10;99.90
15328;DHT22;7764;51.430;6.840;2023-05-24T00:44:07;10.10;99.90
15328;DHT22;7764;51.430;6.840;2023-05-24T00:46:35;10.00;99.90
15328;DHT22;7764;51.430;6.840;2023-05-24T00:49:03;10.00;99.90
15328;DHT22;7764;51.430;6.840;2023-05-24T00:51:30;10.00;99.90
15328;DHT22;7764;51.430;6.840;2023-05-24T00:53:58;10.00;99.90
15328;DHT22;7764;51.430;6.840;2023-05-24T00:56:26;9.90;99.90
15328;DHT22;7764;51.430;6.840;2023-05-24T00:58:54;9.90;99.90
15328;DHT22;7764;51.430;6.840;2023-05-24T01:01:21;9.90;99.90
15328;DHT22;7764;51.430;6.840;2023-05-24T01:03:50;9.90;99.90
15328;DHT22;7764;51.430;6.840;2023-05-24T01:06:18;9.80;99.90
15328;DHT22;7764;51.430;6.840;2023-05-24T01:08:57;9.80;99.90
15328;DHT22;7764;51.430;6.840;2023-05-24T01:11:37;9.80;99.90
15328;DHT22;7764;51.430;6.840;2023-05-24T01:14:13;9.70;99.90
15328;DHT22;7764;51.430;6.840;2023-05-24T01:16:48;9.70;99.90
15328;DHT22;7764;51.430;6.840;2023-05-24T01:19:48;9.70;99.90
15328;DHT22;7764;51.430;6.840;2023-05-24T01:25:22;9.60;99.90
15328;DHT22;7764;51.430;6.840;2023-05-24T01:27:54;9.60;99.90
15328;DHT22;7764;51.430;6.840;2023-05-24T01:30:22;9.60;99.90
15328;DHT22;7764;51.430;6.840;2023-05-24T01:32:50;9.60;99.90
15328;DHT22;7764;51.430;6.840;2023-05-24T01:35:17;9.60;99.90
15328;DHT22;7764;51.430;6.840;2023-05-24T01:37:43;9.60;99.90
15328;DHT22;7764;51.430;6.840;2023-05-24T01:40:11;9.60;99.90
15328;DHT22;7764;51.430;6.840;2023-05-24T01:42:43;9.60;99.90
15328;DHT22;7764;51.430;6.840;2023-05-24T01:45:17;9.60;99.90
15328;DHT22;7764;51.430;6.840;2023-05-24T01:47:56;9.60;99.90
15328;DHT22;7764;51.430;6.840;2023-05-24T01:50:25;9.70;99.90
15328;DHT22;7764;51.430;6.840;2023-05-24T01:52:54;9.70;99.90
15328;DHT22;7764;51.430;6.840;2023-05-24T01:55:26;9.60;99.90
15328;DHT22;7764;51.430;6.840;2023-05-24T01:57:57;9.60;99.90
15328;DHT22;7764;51.430;6.840;2023-05-24T02:00:28;9.60;99.90
15328;DHT22;7764;51.430;6.840;2023-05-24T02:02:56;9.60;99.90
15328;DHT22;7764;51.430;6.840;2023-05-24T02:05:23;9.50;99.90
15328;DHT22;7764;51.430;6.840;2023-05-24T02:07:50;9.60;99.90
15328;DHT22;7764;51.430;6.840;2023-05-24T02:10:17;9.50;99.90
15328;DHT22;7764;51.430;6.840;2023-05-24T02:12:44;9.50;99.90
15328;DHT22;7764;51.430;6.840;2023-05-24T02:15:10;9.50;99.90
15328;DHT22;7764;51.430;6.840;2023-05-24T02:17:40;9.40;99.90
15328;DHT22;7764;51.430;6.840;2023-05-24T02:20:08;9.40;99.90
15328;DHT22;7764;51.430;6.840;2023-05-24T02:22:35;9.40;99.90
15328;DHT22;7764;51.430;6.840;2023-05-24T02:25:02;9.40;99.90
15328;DHT22;7764;51.430;6.840;2023-05-24T02:27:29;9.40;99.90
15328;DHT22;7764;51.430;6.840;2023-05-24T02:29:56;9.40;99.90
15328;DHT22;7764;51.430;6.840;2023-05-24T02:32:23;9.40;99.90
15328;DHT22;7764;51.430;6.840;2023-05-24T02:34:51;9.40;99.90
15328;DHT22;7764;51.430;6.840;2023-05-24T02:37:17;9.20;99.90
15328;DHT22;7764;51.430;6.840;2023-05-24T02:39:45;9.30;99.90
15328;DHT22;7764;51.430;6.840;2023-05-24T02:42:11;9.20;99.90
15328;DHT22;7764;51.430;6.840;2023-05-24T02:44:38;9.30;99.90
15328;DHT22;7764;51.430;6.840;2023-05-24T02:47:07;9.30;99.90
15328;DHT22;7764;51.430;6.840;2023-05-24T02:49:34;9.30;99.90
15328;DHT22;7764;51.430;6.840;2023-05-24T02:52:02;9.20;99.90
15328;DHT22;7764;51.430;6.840;2023-05-24T02:54:29;9.20;99.90
15328;DHT22;7764;51.430;6.840;2023-05-24T02:56:56;9.20;99.90
15328;DHT22;7764;51.430;6.840;2023-05-24T02:59:23;9.30;99.90
15328;DHT22;7764;51.430;6.840;2023-05-24T03:01:50;9.20;99.90
15328;DHT22;7764;51.430;6.840;2023-05-24T03:04:17;9.20;99.90
15328;DHT22;7764;51.430;6.840;2023-05-24T03:06:44;9.20;99.90
15328;DHT22;7764;51.430;6.840;2023-05-24T03:09:13;9.20;99.90
15328;DHT22;7764;51.430;6.840;2023-05-24T03:11:41;9.20;99.90
15328;DHT22;7764;51.430;6.840;2023-05-24T03:14:08;9.20;99.90
15328;DHT22;7764;51.430;6.840;2023-05-24T03:16:35;9.20;99.90
15328;DHT22;7764;51.430;6.840;2023-05-24T03:19:02;9.30;99.90
15328;DHT22;7764;51.430;6.840;2023-05-24T03:21:30;9.30;99.90
15328;DHT22;7764;51.430;6.840;2023-05-24T03:23:57;9.30;99.90
15328;DHT22;7764;51.430;6.840;2023-05-24T03:26:25;9.20;99.90
15328;DHT22;7764;51.430;6.840;2023-05-24T03:28:52;9.20;99.90
15328;DHT22;7764;51.430;6.840;2023-05-24T03:31:21;9.30;99.90
15328;DHT22;7764;51.430;6.840;2023-05-24T03:33:48;9.20;99.90
15328;DHT22;7764;51.430;6.840;2023-05-24T03:36:15;9.20;99.90
15328;DHT22;7764;51.430;6.840;2023-05-24T03:38:42;9.10;99.90
15328;DHT22;7764;51.430;6.840;2023-05-24T03:41:09;9.10;99.90
15328;DHT22;7764;51.430;6.840;2023-05-24T03:43:37;9.10;99.90
15328;DHT22;7764;51.430;6.840;2023-05-24T03:46:04;9.20;99.90
15328;DHT22;7764;51.430;6.840;2023-05-24T03:48:31;9.10;99.90
15328;DHT22;7764;51.430;6.840;2023-05-24T03:50:58;9.20;99.90
15328;DHT22;7764;51.430;6.840;2023-05-24T03:53:25;9.20;99.90
15328;DHT22;7764;51.430;6.840;2023-05-24T03:55:51;9.20;99.90
15328;DHT22;7764;51.430;6.840;2023-05-24T03:58:18;9.20;99.90
15328;DHT22;7764;51.430;6.840;2023-05-24T04:00:46;9.20;99.90
15328;DHT22;7764;51.430;6.840;2023-05-24T04:03:13;9.30;99.90
15328;DHT22;7764;51.430;6.840;2023-05-24T04:05:40;9.30;99.90
15328;DHT22;7764;51.430;6.840;2023-05-24T04:08:07;9.30;99.90
15328;DHT22;7764;51.430;6.840;2023-05-24T04:10:33;9.40;99.90
15328;DHT22;7764;51.430;6.840;2023-05-24T04:13:00;9.50;99.90
15328;DHT22;7764;51.430;6.840;2023-05-24T04:15:27;9.70;99.90
15328;DHT22;7764;51.430;6.840;2023-05-24T04:17:56;9.90;99.90
15328;DHT22;7764;51.430;6.840;2023-05-24T04:20:25;10.10;99.90
15328;DHT22;7764;51.430;6.840;2023-05-24T04:22:52;10.40;99.90
15328;DHT22;7764;51.430;6.840;2023-05-24T04:25:19;10.60;99.90
15328;DHT22;7764;51.430;6.840;2023-05-24T04:27:46;10.80;99.90
15328;DHT22;7764;51.430;6.840;2023-05-24T04:30:13;11.00;99.90
15328;DHT22;7764;51.430;6.840;2023-05-24T04:32:41;11.20;99.90
15328;DHT22;7764;51.430;6.840;2023-05-24T04:35:10;11.20;99.90
15328;DHT22;7764;51.430;6.840;2023-05-24T04:37:37;11.10;99.90
15328;DHT22;7764;51.430;6.840;2023-05-24T04:40:05;10.90;99.90
15328;DHT22;7764;51.430;6.840;2023-05-24T04:42:32;10.80;99.90
15328;DHT22;7764;51.430;6.840;2023-05-24T04:44:59;10.70;99.90
15328;DHT22;7764;51.430;6.840;2023-05-24T04:47:26;10.60;99.90
15328;DHT22;7764;51.430;6.840;2023-05-24T04:49:52;10.60;99.90
15328;DHT22;7764;51.430;6.840;2023-05-24T04:52:21;10.70;99.90
15328;DHT22;7764;51.430;6.840;2023-05-24T04:54:48;10.70;99.90
15328;DHT22;7764;51.430;6.840;2023-05-24T04:57:15;10.70;99.90
15328;DHT22;7764;51.430;6.840;2023-05-24T04:59:42;10.70;99.90
15328;DHT22;7764;51.430;6.840;2023-05-24T05:02:09;10.70;99.90
15328;DHT22;7764;51.430;6.840;2023-05-24T05:04:36;10.60;99.90
15328;DHT22;7764;51.430;6.840;2023-05-24T05:07:03;10.70;99.90
15328;DHT22;7764;51.430;6.840;2023-05-24T05:09:31;10.70;99.90
15328;DHT22;7764;51.430;6.840;2023-05-24T05:11:58;10.80;99.90
15328;DHT22;7764;51.430;6.840;2023-05-24T05:14:25;10.80;99.90
15328;DHT22;7764;51.430;6.840;2023-05-24T05:16:52;10.90;99.90
15328;DHT22;7764;51.430;6.840;2023-05-24T05:19:19;10.90;99.90
15328;DHT22;7764;51.430;6.840;2023-05-24T05:21:45;11.00;99.90
15328;DHT22;7764;51.430;6.840;2023-05-24T05:24:14;11.10;99.90
15328;DHT22;7764;51.430;6.840;2023-05-24T05:26:42;11.20;99.90
15328;DHT22;7764;51.430;6.840;2023-05-24T05:29:09;11.10;99.90
15328;DHT22;7764;51.430;6.840;2023-05-24T05:31:36;11.20;99.90
15328;DHT22;7764;51.430;6.840;2023-05-24T05:34:04;11.20;99.90
15328;DHT22;7764;51.430;6.840;2023-05-24T05:36:34;11.30;99.90
15328;DHT22;7764;51.430;6.840;2023-05-24T05:39:05;11.30;99.90
15328;DHT22;7764;51.430;6.840;2023-05-24T05:41:35;11.40;99.90
15328;DHT22;7764;51.430;6.840;2023-05-24T05:44:03;11.50;99.90
15328;DHT22;7764;51.430;6.840;2023-05-24T05:46:31;11.60;99.90
15328;DHT22;7764;51.430;6.840;2023-05-24T05:48:57;11.70;99.90
15328;DHT22;7764;51.430;6.840;2023-05-24T05:51:24;11.70;99.90
15328;DHT22;7764;51.430;6.840;2023-05-24T05:53:51;11.70;99.90
15328;DHT22;7764;51.430;6.840;2023-05-24T05:56:18;11.80;99.90
15328;DHT22;7764;51.430;6.840;2023-05-24T05:58:45;11.90;99.90
15328;DHT22;7764;51.430;6.840;2023-05-24T06:01:14;11.90;99.90
15328;DHT22;7764;51.430;6.840;2023-05-24T06:03:42;11.90;99.90
15328;DHT22;7764;51.430;6.840;2023-05-24T06:06:08;12.10;99.90
15328;DHT22;7764;51.430;6.840;2023-05-24T06:08:35;12.10;99.90
15328;DHT22;7764;51.430;6.840;2023-05-24T06:11:02;12.20;99.90
15328;DHT22;7764;51.430;6.840;2023-05-24T06:13:29;12.40;99.90
15328;DHT22;7764;51.430;6.840;2023-05-24T06:15:57;12.70;99.90
15328;DHT22;7764;51.430;6.840;2023-05-24T06:18:26;12.90;99.90
15328;DHT22;7764;51.430;6.840;2023-05-24T06:20:54;13.10;99.90
15328;DHT22;7764;51.430;6.840;2023-05-24T06:23:21;13.70;99.90
15328;DHT22;7764;51.430;6.840;2023-05-24T06:25:48;13.70;99.90
15328;DHT22;7764;51.430;6.840;2023-05-24T06:28:15;13.60;99.90
15328;DHT22;7764;51.430;6.840;2023-05-24T06:30:42;13.70;99.90
15328;DHT22;7764;51.430;6.840;2023-05-24T06:33:09;14.00;99.90
15328;DHT22;7764;51.430;6.840;2023-05-24T06:35:37;14.40;99.90
15328;DHT22;7764;51.430;6.840;2023-05-24T06:38:04;15.00;99.90
15328;DHT22;7764;51.430;6.840;2023-05-24T06:40:31;14.90;99.90
15328;DHT22;7764;51.430;6.840;2023-05-24T06:42:57;14.80;99.90
15328;DHT22;7764;51.430;6.840;2023-05-24T06:45:24;14.70;99.90
15328;DHT22;7764;51.430;6.840;2023-05-24T06:47:51;14.60;99.90
15328;DHT22;7764;51.430;6.840;2023-05-24T06:50:18;14.60;99.90
15328;DHT22;7764;51.430;6.840;2023-05-24T06:52:46;14.40;99.90
15328;DHT22;7764;51.430;6.840;2023-05-24T06:55:13;14.30;99.90
15328;DHT22;7764;51.430;6.840;2023-05-24T06:57:40;14.10;99.90
15328;DHT22;7764;51.430;6.840;2023-05-24T07:00:08;14.00;99.90
15328;DHT22;7764;51.430;6.840;2023-05-24T07:02:37;14.20;99.90
15328;DHT22;7764;51.430;6.840;2023-05-24T07:05:04;14.40;99.90
15328;DHT22;7764;51.430;6.840;2023-05-24T07:07:35;14.80;99.90
15328;DHT22;7764;51.430;6.840;2023-05-24T07:10:04;14.80;99.90
15328;DHT22;7764;51.430;6.840;2023-05-24T07:12:31;14.50;99.90
15328;DHT22;7764;51.430;6.840;2023-05-24T07:14:58;14.30;99.90
15328;DHT22;7764;51.430;6.840;2023-05-24T07:17:25;14.20;99.90
15328;DHT22;7764;51.430;6.840;2023-05-24T07:19:52;13.80;99.90
15328;DHT22;7764;51.430;6.840;2023-05-24T07:22:19;13.70;99.90
15328;DHT22;7764;51.430;6.840;2023-05-24T07:24:47;13.60;99.90
15328;DHT22;7764;51.430;6.840;2023-05-24T07:27:15;13.60;99.90
15328;DHT22;7764;51.430;6.840;2023-05-24T07:29:42;13.60;99.90
15328;DHT22;7764;51.430;6.840;2023-05-24T07:32:08;13.50;99.90
15328;DHT22;7764;51.430;6.840;2023-05-24T07:34:35;13.50;99.90
15328;DHT22;7764;51.430;6.840;2023-05-24T07:37:04;13.50;99.90
15328;DHT22;7764;51.430;6.840;2023-05-24T07:39:31;13.50;99.90
15328;DHT22;7764;51.430;6.840;2023-05-24T07:41:58;13.50;99.90
15328;DHT22;7764;51.430;6.840;2023-05-24T07:44:26;13.90;99.90
15328;DHT22;7764;51.430;6.840;2023-05-24T07:46:53;14.10;99.90
15328;DHT22;7764;51.430;6.840;2023-05-24T07:49:22;14.10;99.90
15328;DHT22;7764;51.430;6.840;2023-05-24T07:51:49;14.70;99.90
15328;DHT22;7764;51.430;6.840;2023-05-24T07:54:16;14.70;99.90
15328;DHT22;7764;51.430;6.840;2023-05-24T07:56:43;14.30;99.90
15328;DHT22;7764;51.430;6.840;2023-05-24T07:59:10;14.50;99.90
15328;DHT22;7764;51.430;6.840;2023-05-24T08:01:38;14.50;99.90
15328;DHT22;7764;51.430;6.840;2023-05-24T08:04:05;14.60;99.90
15328;DHT22;7764;51.430;6.840;2023-05-24T08:06:33;14.80;99.90
15328;DHT22;7764;51.430;6.840;2023-05-24T08:09:00;14.70;99.90
15328;DHT22;7764;51.430;6.840;2023-05-24T08:11:28;14.60;99.90
15328;DHT22;7764;51.430;6.840;2023-05-24T08:13:54;14.60;99.90
15328;DHT22;7764;51.430;6.840;2023-05-24T08:16:21;14.30;99.90
15328;DHT22;7764;51.430;6.840;2023-05-24T08:18:49;14.20;99.90
15328;DHT22;7764;51.430;6.840;2023-05-24T08:21:16;14.20;99.90
15328;DHT22;7764;51.430;6.840;2023-05-24T08:23:43;14.00;99.90
15328;DHT22;7764;51.430;6.840;2023-05-24T08:26:10;14.10;99.90
15328;DHT22;7764;51.430;6.840;2023-05-24T08:28:37;14.10;99.90
15328;DHT22;7764;51.430;6.840;2023-05-24T08:31:03;14.30;99.90
15328;DHT22;7764;51.430;6.840;2023-05-24T08:33:30;14.50;99.90
15328;DHT22;7764;51.430;6.840;2023-05-24T08:35:59;14.50;99.90
15328;DHT22;7764;51.430;6.840;2023-05-24T08:38:25;14.60;99.90
15328;DHT22;7764;51.430;6.840;2023-05-24T08:40:53;14.60;99.90
15328;DHT22;7764;51.430;6.840;2023-05-24T08:43:20;14.70;99.90
15328;DHT22;7764;51.430;6.840;2023-05-24T08:45:49;14.60;99.90
15328;DHT22;7764;51.430;6.840;2023-05-24T08:48:16;14.50;99.90
15328;DHT22;7764;51.430;6.840;2023-05-24T08:50:44;14.90;99.90
15328;DHT22;7764;51.430;6.840;2023-05-24T08:53:13;15.30;99.90
15328;DHT22;7764;51.430;6.840;2023-05-24T08:55:41;15.50;99.90
15328;DHT22;7764;51.430;6.840;2023-05-24T08:58:08;15.40;99.90
15328;DHT22;7764;51.430;6.840;2023-05-24T09:00:36;15.30;99.90
15328;DHT22;7764;51.430;6.840;2023-05-24T09:03:04;15.40;99.90
15328;DHT22;7764;51.430;6.840;2023-05-24T09:05:32;15.40;99.90
15328;DHT22;7764;51.430;6.840;2023-05-24T09:07:59;15.40;99.90
15328;DHT22;7764;51.430;6.840;2023-05-24T09:10:28;15.40;99.90
15328;DHT22;7764;51.430;6.840;2023-05-24T09:13:01;15.00;99.90
15328;DHT22;7764;51.430;6.840;2023-05-24T09:15:28;14.80;99.90
15328;DHT22;7764;51.430;6.840;2023-05-24T09:17:55;15.00;99.90
15328;DHT22;7764;51.430;6.840;2023-05-24T09:20:22;15.50;99.90
15328;DHT22;7764;51.430;6.840;2023-05-24T09:22:50;15.90;99.90
15328;DHT22;7764;51.430;6.840;2023-05-24T09:25:18;15.90;99.90
15328;DHT22;7764;51.430;6.840;2023-05-24T09:27:50;15.80;99.90
15328;DHT22;7764;51.430;6.840;2023-05-24T09:30:17;15.70;99.90
15328;DHT22;7764;51.430;6.840;2023-05-24T09:32:53;15.60;99.90
15328;DHT22;7764;51.430;6.840;2023-05-24T09:35:21;15.60;99.90
15328;DHT22;7764;51.430;6.840;2023-05-24T09:37:48;15.50;99.90
15328;DHT22;7764;51.430;6.840;2023-05-24T09:40:18;15.50;99.90
15328;DHT22;7764;51.430;6.840;2023-05-24T09:42:46;15.30;99.90
15328;DHT22;7764;51.430;6.840;2023-05-24T09:45:17;15.10;99.90
15328;DHT22;7764;51.430;6.840;2023-05-24T09:47:44;15.10;99.90
15328;DHT22;7764;51.430;6.840;2023-05-24T09:50:12;15.30;99.90
15328;DHT22;7764;51.430;6.840;2023-05-24T09:52:39;15.30;99.90
15328;DHT22;7764;51.430;6.840;2023-05-24T09:55:12;15.30;99.90
15328;DHT22;7764;51.430;6.840;2023-05-24T09:57:41;15.30;99.90
15328;DHT22;7764;51.430;6.840;2023-05-24T10:00:10;15.30;99.90
15328;DHT22;7764;51.430;6.840;2023-05-24T10:02:46;15.40;99.90
15328;DHT22;7764;51.430;6.840;2023-05-24T10:05:25;15.30;99.90
15328;DHT22;7764;51.430;6.840;2023-05-24T10:07:53;15.60;99.90
15328;DHT22;7764;51.430;6.840;2023-05-24T10:10:21;16.00;99.90
15328;DHT22;7764;51.430;6.840;2023-05-24T10:12:48;16.20;99.90
15328;DHT22;7764;51.430;6.840;2023-05-24T10:15:15;16.10;99.90
15328;DHT22;7764;51.430;6.840;2023-05-24T10:17:43;16.30;99.90
15328;DHT22;7764;51.430;6.840;2023-05-24T10:20:10;16.30;99.90
15328;DHT22;7764;51.430;6.840;2023-05-24T10:22:42;16.20;99.90
15328;DHT22;7764;51.430;6.840;2023-05-24T10:25:13;16.30;99.90
15328;DHT22;7764;51.430;6.840;2023-05-24T10:27:43;16.40;99.90
15328;DHT22;7764;51.430;6.840;2023-05-24T10:30:14;16.60;99.90
15328;DHT22;7764;51.430;6.840;2023-05-24T10:32:44;16.50;99.90
15328;DHT22;7764;51.430;6.840;2023-05-24T10:35:13;16.50;99.90
15328;DHT22;7764;51.430;6.840;2023-05-24T10:37:40;16.30;99.90
15328;DHT22;7764;51.430;6.840;2023-05-24T10:40:15;16.40;99.90
15328;DHT22;7764;51.430;6.840;2023-05-24T10:42:42;16.70;99.90
15328;DHT22;7764;51.430;6.840;2023-05-24T10:45:32;16.80;99.90
15328;DHT22;7764;51.430;6.840;2023-05-24T10:48:07;16.80;99.90
15328;DHT22;7764;51.430;6.840;2023-05-24T10:50:35;16.60;99.90
15328;DHT22;7764;51.430;6.840;2023-05-24T10:53:12;16.40;99.90
15328;DHT22;7764;51.430;6.840;2023-05-24T10:55:54;16.10;99.90
15328;DHT22;7764;51.430;6.840;2023-05-24T10:58:25;16.10;99.90
15328;DHT22;7764;51.430;6.840;2023-05-24T11:00:55;16.00;99.90
15328;DHT22;7764;51.430;6.840;2023-05-24T11:03:23;16.00;99.90
15328;DHT22;7764;51.430;6.840;2023-05-24T11:05:52;15.80;99.90
15328;DHT22;7764;51.430;6.840;2023-05-24T11:08:23;15.80;99.90
15328;DHT22;7764;51.430;6.840;2023-05-24T11:11:01;15.80;99.90
15328;DHT22;7764;51.430;6.840;2023-05-24T11:13:30;15.70;99.90
15328;DHT22;7764;51.430;6.840;2023-05-24T11:15:58;15.60;99.90
15328;DHT22;7764;51.430;6.840;2023-05-24T11:18:27;15.60;99.90
15328;DHT22;7764;51.430;6.840;2023-05-24T11:20:54;15.50;99.90
15328;DHT22;7764;51.430;6.840;2023-05-24T11:23:22;15.40;99.90
15328;DHT22;7764;51.430;6.840;2023-05-24T11:25:49;15.40;99.90
15328;DHT22;7764;51.430;6.840;2023-05-24T11:28:16;15.20;99.90
15328;DHT22;7764;51.430;6.840;2023-05-24T11:30:44;15.20;99.90
15328;DHT22;7764;51.430;6.840;2023-05-24T11:33:15;15.20;99.90
15328;DHT22;7764;51.430;6.840;2023-05-24T11:35:44;15.30;99.90
15328;DHT22;7764;51.430;6.840;2023-05-24T11:38:12;15.30;99.90
15328;DHT22;7764;51.430;6.840;2023-05-24T11:40:41;15.30;99.90
15328;DHT22;7764;51.430;6.840;2023-05-24T11:43:11;15.30;99.90
15328;DHT22;7764;51.430;6.840;2023-05-24T11:45:40;15.40;99.90
15328;DHT22;7764;51.430;6.840;2023-05-24T11:48:08;15.30;99.90
15328;DHT22;7764;51.430;6.840;2023-05-24T11:50:39;15.60;99.90
15328;DHT22;7764;51.430;6.840;2023-05-24T11:53:09;15.70;99.90
15328;DHT22;7764;51.430;6.840;2023-05-24T11:55:37;16.00;99.90
15328;DHT22;7764;51.430;6.840;2023-05-24T11:58:09;16.20;99.90
15328;DHT22;7764;51.430;6.840;2023-05-24T12:00:37;16.20;99.90
15328;DHT22;7764;51.430;6.840;2023-05-24T12:03:04;16.30;99.90
15328;DHT22;7764;51.430;6.840;2023-05-24T12:05:33;16.30;99.90
15328;DHT22;7764;51.430;6.840;2023-05-24T12:08:02;16.30;99.90
15328;DHT22;7764;51.430;6.840;2023-05-24T12:10:32;16.30;99.90
15328;DHT22;7764;51.430;6.840;2023-05-24T12:13:00;16.20;99.90
15328;DHT22;7764;51.430;6.840;2023-05-24T12:15:27;16.20;99.90
15328;DHT22;7764;51.430;6.840;2023-05-24T12:17:54;16.40;99.90
15328;DHT22;7764;51.430;6.840;2023-05-24T12:20:21;16.50;99.90
15328;DHT22;7764;51.430;6.840;2023-05-24T12:22:48;16.70;99.90
15328;DHT22;7764;51.430;6.840;2023-05-24T12:25:16;16.40;99.90
15328;DHT22;7764;51.430;6.840;2023-05-24T12:27:51;16.60;99.90
15328;DHT22;7764;51.430;6.840;2023-05-24T12:30:21;16.80;99.90
15328;DHT22;7764;51.430;6.840;2023-05-24T12:32:49;16.80;99.90
15328;DHT22;7764;51.430;6.840;2023-05-24T12:35:16;16.80;99.90
15328;DHT22;7764;51.430;6.840;2023-05-24T12:37:44;16.70;99.90
15328;DHT22;7764;51.430;6.840;2023-05-24T12:40:15;16.80;99.90
15328;DHT22;7764;51.430;6.840;2023-05-24T12:42:48;16.90;99.90
15328;DHT22;7764;51.430;6.840;2023-05-24T12:45:16;16.90;99.90
15328;DHT22;7764;51.430;6.840;2023-05-24T12:47:48;17.10;99.90
15328;DHT22;7764;51.430;6.840;2023-05-24T12:50:16;17.20;99.90
15328;DHT22;7764;51.430;6.840;2023-05-24T12:52:43;17.40;99.90
15328;DHT22;7764;51.430;6.840;2023-05-24T12:55:11;17.40;99.90
15328;DHT22;7764;51.430;6.840;2023-05-24T12:57:39;17.40;99.90
15328;DHT22;7764;51.430;6.840;2023-05-24T13:00:09;17.30;99.90
15328;DHT22;7764;51.430;6.840;2023-05-24T13:02:36;17.20;99.90
15328;DHT22;7764;51.430;6.840;2023-05-24T13:05:04;17.20;99.90
15328;DHT22;7764;51.430;6.840;2023-05-24T13:07:31;17.10;99.90
15328;DHT22;7764;51.430;6.840;2023-05-24T13:09:58;17.30;99.90
15328;DHT22;7764;51.430;6.840;2023-05-24T13:12:25;17.10;99.90
15328;DHT22;7764;51.430;6.840;2023-05-24T13:14:52;17.00;99.90
15328;DHT22;7764;51.430;6.840;2023-05-24T13:17:20;17.30;99.90
15328;DHT22;7764;51.430;6.840;2023-05-24T13:19:47;17.10;99.90
15328;DHT22;7764;51.430;6.840;2023-05-24T13:22:14;17.20;99.90
15328;DHT22;7764;51.430;6.840;2023-05-24T13:24:41;16.90;99.90
15328;DHT22;7764;51.430;6.840;2023-05-24T13:27:08;17.00;99.90
15328;DHT22;7764;51.430;6.840;2023-05-24T13:29:35;17.20;99.90
15328;DHT22;7764;51.430;6.840;2023-05-24T13:32:02;17.40;99.90
15328;DHT22;7764;51.430;6.840;2023-05-24T13:34:30;17.50;99.20
15328;DHT22;7764;51.430;6.840;2023-05-24T13:36:57;17.70;97.80
15328;DHT22;7764;51.430;6.840;2023-05-24T13:39:25;17.70;99.00
15328;DHT22;7764;51.430;6.840;2023-05-24T13:41:52;17.80;97.60
15328;DHT22;7764;51.430;6.840;2023-05-24T13:44:19;17.60;97.70
15328;DHT22;7764;51.430;6.840;2023-05-24T13:46:46;17.60;98.00
15328;DHT22;7764;51.430;6.840;2023-05-24T13:49:13;17.40;98.30
15328;DHT22;7764;51.430;6.840;2023-05-24T13:51:41;17.40;99.90
15328;DHT22;7764;51.430;6.840;2023-05-24T13:54:08;17.40;99.90
15328;DHT22;7764;51.430;6.840;2023-05-24T13:56:36;17.30;99.90
15328;DHT22;7764;51.430;6.840;2023-05-24T13:59:05;17.40;99.90
15328;DHT22;7764;51.430;6.840;2023-05-24T14:01:33;17.60;99.90
15328;DHT22;7764;51.430;6.840;2023-05-24T14:04:00;17.70;99.90
15328;DHT22;7764;51.430;6.840;2023-05-24T14:06:27;17.50;99.90
15328;DHT22;7764;51.430;6.840;2023-05-24T14:08:56;17.40;98.70
15328;DHT22;7764;51.430;6.840;2023-05-24T14:11:22;17.40;99.60
15328;DHT22;7764;51.430;6.840;2023-05-24T14:13:50;17.40;99.90
15328;DHT22;7764;51.430;6.840;2023-05-24T14:16:17;17.10;99.90
15328;DHT22;7764;51.430;6.840;2023-05-24T14:18:44;17.00;99.90
15328;DHT22;7764;51.430;6.840;2023-05-24T14:21:13;16.90;99.90
15328;DHT22;7764;51.430;6.840;2023-05-24T14:23:40;16.80;99.90
15328;DHT22;7764;51.430;6.840;2023-05-24T14:26:08;16.80;99.90
15328;DHT22;7764;51.430;6.840;2023-05-24T14:28:35;16.70;99.90
15328;DHT22;7764;51.430;6.840;2023-05-24T14:31:02;16.60;99.90
15328;DHT22;7764;51.430;6.840;2023-05-24T14:33:29;16.60;99.90
15328;DHT22;7764;51.430;6.840;2023-05-24T14:35:56;16.60;99.90
15328;DHT22;7764;51.430;6.840;2023-05-24T14:38:23;16.70;99.90
15328;DHT22;7764;51.430;6.840;2023-05-24T14:40:50;16.60;99.90
15328;DHT22;7764;51.430;6.840;2023-05-24T14:43:19;16.50;99.90
15328;DHT22;7764;51.430;6.840;2023-05-24T14:45:45;16.50;99.90
15328;DHT22;7764;51.430;6.840;2023-05-24T14:48:14;16.40;99.90
15328;DHT22;7764;51.430;6.840;2023-05-24T14:50:41;16.40;99.90
15328;DHT22;7764;51.430;6.840;2023-05-24T14:53:08;16.40;99.90
15328;DHT22;7764;51.430;6.840;2023-05-24T14:55:36;16.40;99.90
15328;DHT22;7764;51.430;6.840;2023-05-24T14:58:04;16.40;99.90
15328;DHT22;7764;51.430;6.840;2023-05-24T15:00:34;16.40;99.90
15328;DHT22;7764;51.430;6.840;2023-05-24T15:03:01;16.40;99.90
15328;DHT22;7764;51.430;6.840;2023-05-24T15:05:30;16.50;99.90
15328;DHT22;7764;51.430;6.840;2023-05-24T15:07:56;16.50;99.90
15328;DHT22;7764;51.430;6.840;2023-05-24T15:10:23;16.40;99.90
15328;DHT22;7764;51.430;6.840;2023-05-24T15:12:50;16.50;99.90
15328;DHT22;7764;51.430;6.840;2023-05-24T15:15:17;16.60;99.90
15328;DHT22;7764;51.430;6.840;2023-05-24T15:17:46;16.50;99.90
15328;DHT22;7764;51.430;6.840;2023-05-24T15:20:12;16.60;99.90
15328;DHT22;7764;51.430;6.840;2023-05-24T15:22:39;16.60;99.90
15328;DHT22;7764;51.430;6.840;2023-05-24T15:25:07;16.70;99.90
15328;DHT22;7764;51.430;6.840;2023-05-24T15:27:35;16.60;99.90
15328;DHT22;7764;51.430;6.840;2023-05-24T15:30:02;16.70;99.90
15328;DHT22;7764;51.430;6.840;2023-05-24T15:32:30;16.80;99.90
15328;DHT22;7764;51.430;6.840;2023-05-24T15:34:59;16.80;99.90
15328;DHT22;7764;51.430;6.840;2023-05-24T15:37:26;16.90;99.90
15328;DHT22;7764;51.430;6.840;2023-05-24T15:39:52;16.80;99.90
15328;DHT22;7764;51.430;6.840;2023-05-24T15:42:19;17.10;99.90
15328;DHT22;7764;51.430;6.840;2023-05-24T15:44:49;17.00;99.90
15328;DHT22;7764;51.430;6.840;2023-05-24T15:47:16;17.00;99.90
15328;DHT22;7764;51.430;6.840;2023-05-24T15:49:42;16.90;99.90
15328;DHT22;7764;51.430;6.840;2023-05-24T15:52:11;17.00;99.90
15328;DHT22;7764;51.430;6.840;2023-05-24T15:54:38;17.00;99.90
15328;DHT22;7764;51.430;6.840;2023-05-24T15:57:05;17.00;99.90
15328;DHT22;7764;51.430;6.840;2023-05-24T15:59:32;17.00;99.90